sensor_id;sensor_type;location;lat;lon;timestamp;temperature;humidity
81951;DHT22;71452;52.562;5.642;2023-08-07T00:00:09;16.40;75.20
81951;DHT22;71452;52.562;5.642;2023-08-07T00:02:39;16.30;75.00
81951;DHT22;71452;52.562;5.642;2023-08-07T00:05:08;16.20;75.40
81951;DHT22;71452;52.562;5.642;2023-08-07T00:07:37;16.20;75.60
81951;DHT22;71452;52.562;5.642;2023-08-07T00:10:07;16.10;75.80
81951;DHT22;71452;52.562;5.642;2023-08-07T00:12:39;16.10;76.20
81951;DHT22;71452;52.562;5.642;2023-08-07T00:15:09;16.00;76.20
81951;DHT22;71452;52.562;5.642;2023-08-07T00:17:38;16.00;76.40
81951;DHT22;71452;52.562;5.642;2023-08-07T00:20:08;16.00;76.30
81951;DHT22;71452;52.562;5.642;2023-08-07T00:22:37;16.00;76.40
81951;DHT22;71452;52.562;5.642;2023-08-07T00:25:07;16.00;76.30
81951;DHT22;71452;52.562;5.642;2023-08-07T00:27:39;16.00;76.20
81951;DHT22;71452;52.562;5.642;2023-08-07T00:30:09;16.00;76.00
81951;DHT22;71452;52.562;5.642;2023-08-07T00:32:38;16.00;76.00
81951;DHT22;71452;52.562;5.642;2023-08-07T00:35:08;16.00;75.90
81951;DHT22;71452;52.562;5.642;2023-08-07T00:37:37;15.90;75.80
81951;DHT22;71452;52.562;5.642;2023-08-07T00:40:07;15.90;75.80
81951;DHT22;71452;52.562;5.642;2023-08-07T00:42:39;15.80;76.00
81951;DHT22;71452;52.562;5.642;2023-08-07T00:45:09;15.80;76.00
81951;DHT22;71452;52.562;5.642;2023-08-07T00:47:38;15.80;76.20
81951;DHT22;71452;52.562;5.642;2023-08-07T00:50:08;15.80;75.90
81951;DHT22;71452;52.562;5.642;2023-08-07T00:52:38;15.80;75.70
81951;DHT22;71452;52.562;5.642;2023-08-07T00:55:07;15.80;75.70
81951;DHT22;71452;52.562;5.642;2023-08-07T00:57:39;15.80;75.70
81951;DHT22;71452;52.562;5.642;2023-08-07T01:00:09;15.80;75.50
81951;DHT22;71452;52.562;5.642;2023-08-07T01:02:39;15.80;75.50
81951;DHT22;71452;52.562;5.642;2023-08-07T01:05:08;15.80;75.40
81951;DHT22;71452;52.562;5.642;2023-08-07T01:07:37;15.80;74.90
81951;DHT22;71452;52.562;5.642;2023-08-07T01:10:07;15.80;74.90
81951;DHT22;71452;52.562;5.642;2023-08-07T01:12:45;15.80;74.80
81951;DHT22;71452;52.562;5.642;2023-08-07T01:15:22;15.80;74.70
81951;DHT22;71452;52.562;5.642;2023-08-07T01:17:54;15.80;75.00
81951;DHT22;71452;52.562;5.642;2023-08-07T01:20:24;15.80;75.10
81951;DHT22;71452;52.562;5.642;2023-08-07T01:22:55;15.80;75.00
81951;DHT22;71452;52.562;5.642;2023-08-07T01:25:24;15.80;74.90
81951;DHT22;71452;52.562;5.642;2023-08-07T01:28:01;15.80;74.70
81951;DHT22;71452;52.562;5.642;2023-08-07T01:30:35;15.80;74.80
81951;DHT22;71452;52.562;5.642;2023-08-07T01:33:10;15.70;74.70
81951;DHT22;71452;52.562;5.642;2023-08-07T01:35:43;15.70;74.70
81951;DHT22;71452;52.562;5.642;2023-08-07T01:38:16;15.60;74.70
81951;DHT22;71452;52.562;5.642;2023-08-07T01:40:46;15.60;74.70
81951;DHT22;71452;52.562;5.642;2023-08-07T01:43:19;15.60;74.90
81951;DHT22;71452;52.562;5.642;2023-08-07T01:45:48;15.60;75.00
81951;DHT22;71452;52.562;5.642;2023-08-07T01:48:17;15.60;75.20
81951;DHT22;71452;52.562;5.642;2023-08-07T01:50:47;15.60;75.10
81951;DHT22;71452;52.562;5.642;2023-08-07T01:53:18;15.60;75.00
81951;DHT22;71452;52.562;5.642;2023-08-07T01:55:47;15.60;75.10
81951;DHT22;71452;52.562;5.642;2023-08-07T01:58:16;15.60;75.20
81951;DHT22;71452;52.562;5.642;2023-08-07T02:00:45;15.60;75.30
81951;DHT22;71452;52.562;5.642;2023-08-07T02:03:14;15.60;75.50
81951;DHT22;71452;52.562;5.642;2023-08-07T02:05:45;15.60;75.60
81951;DHT22;71452;52.562;5.642;2023-08-07T02:08:14;15.60;75.50
81951;DHT22;71452;52.562;5.642;2023-08-07T02:10:46;15.50;75.90
81951;DHT22;71452;52.562;5.642;2023-08-07T02:13:15;15.50;75.90
81951;DHT22;71452;52.562;5.642;2023-08-07T02:15:45;15.50;76.00
81951;DHT22;71452;52.562;5.642;2023-08-07T02:18:14;15.50;76.20
81951;DHT22;71452;52.562;5.642;2023-08-07T02:20:43;15.50;76.00
81951;DHT22;71452;52.562;5.642;2023-08-07T02:23:12;15.50;76.00
81951;DHT22;71452;52.562;5.642;2023-08-07T02:25:41;15.50;76.20
81951;DHT22;71452;52.562;5.642;2023-08-07T02:28:14;15.40;76.20
81951;DHT22;71452;52.562;5.642;2023-08-07T02:30:45;15.40;76.50
81951;DHT22;71452;52.562;5.642;2023-08-07T02:33:14;15.50;76.50
81951;DHT22;71452;52.562;5.642;2023-08-07T02:35:44;15.40;76.50
81951;DHT22;71452;52.562;5.642;2023-08-07T02:38:13;15.40;76.70
81951;DHT22;71452;52.562;5.642;2023-08-07T02:40:43;15.50;76.80
81951;DHT22;71452;52.562;5.642;2023-08-07T02:43:14;15.50;76.90
81951;DHT22;71452;52.562;5.642;2023-08-07T02:45:43;15.50;76.90
81951;DHT22;71452;52.562;5.642;2023-08-07T02:48:12;15.50;77.00
81951;DHT22;71452;52.562;5.642;2023-08-07T02:50:43;15.50;77.20
81951;DHT22;71452;52.562;5.642;2023-08-07T02:53:12;15.60;77.10
81951;DHT22;71452;52.562;5.642;2023-08-07T02:55:43;15.60;77.10
81951;DHT22;71452;52.562;5.642;2023-08-07T02:58:14;15.60;77.10
81951;DHT22;71452;52.562;5.642;2023-08-07T03:00:43;15.60;77.10
81951;DHT22;71452;52.562;5.642;2023-08-07T03:03:12;15.60;77.10
81951;DHT22;71452;52.562;5.642;2023-08-07T03:05:48;15.60;77.10
81951;DHT22;71452;52.562;5.642;2023-08-07T03:08:18;15.60;77.20
81951;DHT22;71452;52.562;5.642;2023-08-07T03:10:51;15.70;77.20
81951;DHT22;71452;52.562;5.642;2023-08-07T03:13:26;15.80;77.30
81951;DHT22;71452;52.562;5.642;2023-08-07T03:16:02;15.80;77.40
81951;DHT22;71452;52.562;5.642;2023-08-07T03:18:32;15.80;77.50
81951;DHT22;71452;52.562;5.642;2023-08-07T03:21:02;15.80;77.70
81951;DHT22;71452;52.562;5.642;2023-08-07T03:23:31;15.90;77.70
81951;DHT22;71452;52.562;5.642;2023-08-07T03:26:03;15.90;77.80
81951;DHT22;71452;52.562;5.642;2023-08-07T03:28:36;15.90;77.90
81951;DHT22;71452;52.562;5.642;2023-08-07T03:31:05;15.90;78.00
81951;DHT22;71452;52.562;5.642;2023-08-07T03:33:36;15.90;78.20
81951;DHT22;71452;52.562;5.642;2023-08-07T03:36:05;16.00;78.20
81951;DHT22;71452;52.562;5.642;2023-08-07T03:38:34;16.00;78.20
81951;DHT22;71452;52.562;5.642;2023-08-07T03:41:03;16.00;78.10
81951;DHT22;71452;52.562;5.642;2023-08-07T03:43:35;15.90;78.20
81951;DHT22;71452;52.562;5.642;2023-08-07T03:46:04;16.00;78.10
81951;DHT22;71452;52.562;5.642;2023-08-07T03:48:33;15.90;78.10
81951;DHT22;71452;52.562;5.642;2023-08-07T03:51:03;15.90;77.90
81951;DHT22;71452;52.562;5.642;2023-08-07T03:53:38;15.90;77.70
81951;DHT22;71452;52.562;5.642;2023-08-07T03:56:07;15.90;77.70
81951;DHT22;71452;52.562;5.642;2023-08-07T03:58:38;15.80;77.70
81951;DHT22;71452;52.562;5.642;2023-08-07T04:01:07;15.80;77.60
81951;DHT22;71452;52.562;5.642;2023-08-07T04:03:38;15.80;77.70
81951;DHT22;71452;52.562;5.642;2023-08-07T04:06:07;15.80;77.70
81951;DHT22;71452;52.562;5.642;2023-08-07T04:08:42;15.80;78.00
81951;DHT22;71452;52.562;5.642;2023-08-07T04:11:11;15.80;78.00
81951;DHT22;71452;52.562;5.642;2023-08-07T04:13:42;15.80;77.90
81951;DHT22;71452;52.562;5.642;2023-08-07T04:16:11;15.70;77.80
81951;DHT22;71452;52.562;5.642;2023-08-07T04:18:41;15.80;77.00
81951;DHT22;71452;52.562;5.642;2023-08-07T04:21:10;15.80;76.60
81951;DHT22;71452;52.562;5.642;2023-08-07T04:23:39;15.80;76.90
81951;DHT22;71452;52.562;5.642;2023-08-07T04:26:08;15.70;77.20
81951;DHT22;71452;52.562;5.642;2023-08-07T04:28:37;15.70;77.40
81951;DHT22;71452;52.562;5.642;2023-08-07T04:31:09;15.70;77.30
81951;DHT22;71452;52.562;5.642;2023-08-07T04:33:38;15.80;77.20
81951;DHT22;71452;52.562;5.642;2023-08-07T04:36:07;15.80;77.30
81951;DHT22;71452;52.562;5.642;2023-08-07T04:38:36;15.80;77.50
81951;DHT22;71452;52.562;5.642;2023-08-07T04:41:05;15.80;77.50
81951;DHT22;71452;52.562;5.642;2023-08-07T04:43:34;15.90;77.10
81951;DHT22;71452;52.562;5.642;2023-08-07T04:46:03;15.90;76.60
81951;DHT22;71452;52.562;5.642;2023-08-07T04:48:35;16.00;76.30
81951;DHT22;71452;52.562;5.642;2023-08-07T04:51:04;16.00;75.70
81951;DHT22;71452;52.562;5.642;2023-08-07T04:53:33;16.00;75.80
81951;DHT22;71452;52.562;5.642;2023-08-07T04:56:02;16.00;74.90
81951;DHT22;71452;52.562;5.642;2023-08-07T04:58:31;16.00;74.70
81951;DHT22;71452;52.562;5.642;2023-08-07T05:01:00;16.00;75.20
81951;DHT22;71452;52.562;5.642;2023-08-07T05:03:29;16.00;74.80
81951;DHT22;71452;52.562;5.642;2023-08-07T05:06:02;16.00;74.20
81951;DHT22;71452;52.562;5.642;2023-08-07T05:08:31;15.90;74.60
81951;DHT22;71452;52.562;5.642;2023-08-07T05:11:00;15.90;74.70
81951;DHT22;71452;52.562;5.642;2023-08-07T05:13:29;15.90;75.00
81951;DHT22;71452;52.562;5.642;2023-08-07T05:15:58;15.80;74.70
81951;DHT22;71452;52.562;5.642;2023-08-07T05:18:27;15.70;74.50
81951;DHT22;71452;52.562;5.642;2023-08-07T05:20:56;15.80;73.60
81951;DHT22;71452;52.562;5.642;2023-08-07T05:23:28;15.80;73.50
81951;DHT22;71452;52.562;5.642;2023-08-07T05:25:57;15.80;73.60
81951;DHT22;71452;52.562;5.642;2023-08-07T05:28:26;15.80;73.90
81951;DHT22;71452;52.562;5.642;2023-08-07T05:30:55;15.80;74.30
81951;DHT22;71452;52.562;5.642;2023-08-07T05:33:24;15.80;74.60
81951;DHT22;71452;52.562;5.642;2023-08-07T05:35:53;15.80;74.10
81951;DHT22;71452;52.562;5.642;2023-08-07T05:38:22;15.80;73.70
81951;DHT22;71452;52.562;5.642;2023-08-07T05:40:53;16.00;73.50
81951;DHT22;71452;52.562;5.642;2023-08-07T05:43:22;16.00;73.10
81951;DHT22;71452;52.562;5.642;2023-08-07T05:45:51;16.00;72.20
81951;DHT22;71452;52.562;5.642;2023-08-07T05:48:20;16.00;71.80
81951;DHT22;71452;52.562;5.642;2023-08-07T05:50:51;16.10;72.10
81951;DHT22;71452;52.562;5.642;2023-08-07T05:53:20;16.10;72.60
81951;DHT22;71452;52.562;5.642;2023-08-07T05:55:49;16.10;72.00
81951;DHT22;71452;52.562;5.642;2023-08-07T05:58:21;16.10;71.60
81951;DHT22;71452;52.562;5.642;2023-08-07T06:00:50;16.10;71.60
81951;DHT22;71452;52.562;5.642;2023-08-07T06:03:19;16.00;71.90
81951;DHT22;71452;52.562;5.642;2023-08-07T06:05:49;16.00;71.40
81951;DHT22;71452;52.562;5.642;2023-08-07T06:08:18;16.00;71.30
81951;DHT22;71452;52.562;5.642;2023-08-07T06:10:47;16.10;71.20
81951;DHT22;71452;52.562;5.642;2023-08-07T06:13:16;16.20;70.70
81951;DHT22;71452;52.562;5.642;2023-08-07T06:15:47;16.20;69.80
81951;DHT22;71452;52.562;5.642;2023-08-07T06:18:17;16.20;70.20
81951;DHT22;71452;52.562;5.642;2023-08-07T06:20:46;16.20;70.00
81951;DHT22;71452;52.562;5.642;2023-08-07T06:23:15;16.20;69.50
81951;DHT22;71452;52.562;5.642;2023-08-07T06:25:44;16.20;69.60
81951;DHT22;71452;52.562;5.642;2023-08-07T06:28:13;16.30;68.90
81951;DHT22;71452;52.562;5.642;2023-08-07T06:30:42;16.30;68.60
81951;DHT22;71452;52.562;5.642;2023-08-07T06:33:14;16.30;68.90
81951;DHT22;71452;52.562;5.642;2023-08-07T06:35:43;16.30;69.00
81951;DHT22;71452;52.562;5.642;2023-08-07T06:38:12;16.40;69.00
81951;DHT22;71452;52.562;5.642;2023-08-07T06:40:41;16.40;67.60
81951;DHT22;71452;52.562;5.642;2023-08-07T06:43:10;16.40;68.00
81951;DHT22;71452;52.562;5.642;2023-08-07T06:45:39;16.50;68.30
81951;DHT22;71452;52.562;5.642;2023-08-07T06:48:08;16.50;68.40
81951;DHT22;71452;52.562;5.642;2023-08-07T06:50:39;16.60;68.40
81951;DHT22;71452;52.562;5.642;2023-08-07T06:53:08;16.60;68.30
81951;DHT22;71452;52.562;5.642;2023-08-07T06:55:37;16.60;68.30
81951;DHT22;71452;52.562;5.642;2023-08-07T06:58:06;16.60;68.50
81951;DHT22;71452;52.562;5.642;2023-08-07T07:00:36;16.60;68.40
81951;DHT22;71452;52.562;5.642;2023-08-07T07:03:05;16.70;68.10
81951;DHT22;71452;52.562;5.642;2023-08-07T07:05:38;16.90;67.80
81951;DHT22;71452;52.562;5.642;2023-08-07T07:08:08;17.00;66.80
81951;DHT22;71452;52.562;5.642;2023-08-07T07:10:37;17.10;66.60
81951;DHT22;71452;52.562;5.642;2023-08-07T07:13:06;17.20;65.40
81951;DHT22;71452;52.562;5.642;2023-08-07T07:15:38;17.30;64.40
81951;DHT22;71452;52.562;5.642;2023-08-07T07:18:07;17.50;64.10
81951;DHT22;71452;52.562;5.642;2023-08-07T07:20:39;17.60;63.00
81951;DHT22;71452;52.562;5.642;2023-08-07T07:23:10;17.80;62.60
81951;DHT22;71452;52.562;5.642;2023-08-07T07:25:40;17.90;63.00
81951;DHT22;71452;52.562;5.642;2023-08-07T07:28:09;18.00;62.10
81951;DHT22;71452;52.562;5.642;2023-08-07T07:30:39;18.10;62.20
81951;DHT22;71452;52.562;5.642;2023-08-07T07:33:08;18.10;61.10
81951;DHT22;71452;52.562;5.642;2023-08-07T07:35:40;18.20;61.10
81951;DHT22;71452;52.562;5.642;2023-08-07T07:38:10;18.40;61.70
81951;DHT22;71452;52.562;5.642;2023-08-07T07:40:39;18.50;61.30
81951;DHT22;71452;52.562;5.642;2023-08-07T07:43:09;18.70;61.20
81951;DHT22;71452;52.562;5.642;2023-08-07T07:45:38;18.90;61.00
81951;DHT22;71452;52.562;5.642;2023-08-07T07:48:07;19.00;60.70
81951;DHT22;71452;52.562;5.642;2023-08-07T07:50:36;19.20;60.80
81951;DHT22;71452;52.562;5.642;2023-08-07T07:53:08;19.30;59.70
81951;DHT22;71452;52.562;5.642;2023-08-07T07:55:37;19.30;58.90
81951;DHT22;71452;52.562;5.642;2023-08-07T07:58:06;19.30;59.30
81951;DHT22;71452;52.562;5.642;2023-08-07T08:00:35;19.20;59.20
81951;DHT22;71452;52.562;5.642;2023-08-07T08:03:13;19.20;59.70
81951;DHT22;71452;52.562;5.642;2023-08-07T08:05:43;19.30;59.70
81951;DHT22;71452;52.562;5.642;2023-08-07T08:08:14;19.30;59.90
81951;DHT22;71452;52.562;5.642;2023-08-07T08:10:54;19.30;60.50
81951;DHT22;71452;52.562;5.642;2023-08-07T08:13:23;19.20;60.20
81951;DHT22;71452;52.562;5.642;2023-08-07T08:15:52;19.00;60.30
81951;DHT22;71452;52.562;5.642;2023-08-07T08:18:21;18.90;60.60
81951;DHT22;71452;52.562;5.642;2023-08-07T08:20:50;18.90;60.90
81951;DHT22;71452;52.562;5.642;2023-08-07T08:23:22;19.00;60.90
81951;DHT22;71452;52.562;5.642;2023-08-07T08:25:51;19.10;60.20
81951;DHT22;71452;52.562;5.642;2023-08-07T08:28:21;19.10;59.80
81951;DHT22;71452;52.562;5.642;2023-08-07T08:30:50;19.00;59.80
81951;DHT22;71452;52.562;5.642;2023-08-07T08:33:19;18.90;60.50
81951;DHT22;71452;52.562;5.642;2023-08-07T08:35:48;18.80;60.80
81951;DHT22;71452;52.562;5.642;2023-08-07T08:38:17;18.60;61.50
81951;DHT22;71452;52.562;5.642;2023-08-07T08:40:51;18.50;60.40
81951;DHT22;71452;52.562;5.642;2023-08-07T08:43:20;18.30;59.50
81951;DHT22;71452;52.562;5.642;2023-08-07T08:45:50;18.40;60.10
81951;DHT22;71452;52.562;5.642;2023-08-07T08:48:20;18.50;60.20
81951;DHT22;71452;52.562;5.642;2023-08-07T08:50:52;18.60;58.90
81951;DHT22;71452;52.562;5.642;2023-08-07T08:53:21;18.60;59.30
81951;DHT22;71452;52.562;5.642;2023-08-07T08:55:53;18.60;60.00
81951;DHT22;71452;52.562;5.642;2023-08-07T08:58:23;18.70;56.20
81951;DHT22;71452;52.562;5.642;2023-08-07T09:00:52;18.90;57.10
81951;DHT22;71452;52.562;5.642;2023-08-07T09:03:22;18.90;56.40
81951;DHT22;71452;52.562;5.642;2023-08-07T09:05:53;19.10;57.00
81951;DHT22;71452;52.562;5.642;2023-08-07T09:08:22;19.30;55.30
81951;DHT22;71452;52.562;5.642;2023-08-07T09:10:55;19.30;54.80
81951;DHT22;71452;52.562;5.642;2023-08-07T09:13:25;19.40;55.40
81951;DHT22;71452;52.562;5.642;2023-08-07T09:15:58;19.60;55.30
81951;DHT22;71452;52.562;5.642;2023-08-07T09:18:29;19.70;54.70
81951;DHT22;71452;52.562;5.642;2023-08-07T09:20:58;19.70;54.70
81951;DHT22;71452;52.562;5.642;2023-08-07T09:23:28;19.70;55.60
81951;DHT22;71452;52.562;5.642;2023-08-07T09:26:04;19.80;54.90
81951;DHT22;71452;52.562;5.642;2023-08-07T09:28:34;19.90;56.10
81951;DHT22;71452;52.562;5.642;2023-08-07T09:31:06;20.00;56.10
81951;DHT22;71452;52.562;5.642;2023-08-07T09:33:35;20.20;55.50
81951;DHT22;71452;52.562;5.642;2023-08-07T09:36:05;20.30;54.80
81951;DHT22;71452;52.562;5.642;2023-08-07T09:38:34;20.20;54.20
81951;DHT22;71452;52.562;5.642;2023-08-07T09:41:05;20.00;55.30
81951;DHT22;71452;52.562;5.642;2023-08-07T09:43:34;20.10;55.90
81951;DHT22;71452;52.562;5.642;2023-08-07T09:46:04;20.10;54.70
81951;DHT22;71452;52.562;5.642;2023-08-07T09:48:39;20.00;55.20
81951;DHT22;71452;52.562;5.642;2023-08-07T09:51:09;20.00;55.60
81951;DHT22;71452;52.562;5.642;2023-08-07T09:53:39;20.00;55.80
81951;DHT22;71452;52.562;5.642;2023-08-07T09:56:11;19.90;55.40
81951;DHT22;71452;52.562;5.642;2023-08-07T09:58:47;19.70;56.60
81951;DHT22;71452;52.562;5.642;2023-08-07T10:01:17;19.50;56.30
81951;DHT22;71452;52.562;5.642;2023-08-07T10:03:47;19.50;56.50
81951;DHT22;71452;52.562;5.642;2023-08-07T10:06:17;19.40;56.50
81951;DHT22;71452;52.562;5.642;2023-08-07T10:08:48;19.20;56.70
81951;DHT22;71452;52.562;5.642;2023-08-07T10:11:20;19.20;57.00
81951;DHT22;71452;52.562;5.642;2023-08-07T10:13:50;19.30;57.10
81951;DHT22;71452;52.562;5.642;2023-08-07T10:16:20;19.30;57.20
81951;DHT22;71452;52.562;5.642;2023-08-07T10:18:49;19.40;57.10
81951;DHT22;71452;52.562;5.642;2023-08-07T10:21:19;19.50;56.60
81951;DHT22;71452;52.562;5.642;2023-08-07T10:23:50;19.50;56.20
81951;DHT22;71452;52.562;5.642;2023-08-07T10:26:23;19.70;56.40
81951;DHT22;71452;52.562;5.642;2023-08-07T10:28:53;19.90;56.20
81951;DHT22;71452;52.562;5.642;2023-08-07T10:31:23;19.90;55.00
81951;DHT22;71452;52.562;5.642;2023-08-07T10:33:53;19.70;55.40
81951;DHT22;71452;52.562;5.642;2023-08-07T10:36:22;19.60;56.00
81951;DHT22;71452;52.562;5.642;2023-08-07T10:39:06;19.50;56.90
81951;DHT22;71452;52.562;5.642;2023-08-07T10:41:41;19.30;57.40
81951;DHT22;71452;52.562;5.642;2023-08-07T10:44:17;19.30;58.00
81951;DHT22;71452;52.562;5.642;2023-08-07T10:46:48;19.30;57.50
81951;DHT22;71452;52.562;5.642;2023-08-07T10:49:30;19.40;56.80
81951;DHT22;71452;52.562;5.642;2023-08-07T10:52:03;19.50;57.30
81951;DHT22;71452;52.562;5.642;2023-08-07T10:54:37;19.70;57.00
81951;DHT22;71452;52.562;5.642;2023-08-07T10:57:15;20.00;55.90
81951;DHT22;71452;52.562;5.642;2023-08-07T10:59:49;20.20;54.40
81951;DHT22;71452;52.562;5.642;2023-08-07T11:02:25;20.20;55.00
81951;DHT22;71452;52.562;5.642;2023-08-07T11:04:55;20.30;54.60
81951;DHT22;71452;52.562;5.642;2023-08-07T11:07:26;20.50;53.70
81951;DHT22;71452;52.562;5.642;2023-08-07T11:09:55;20.50;53.50
81951;DHT22;71452;52.562;5.642;2023-08-07T11:12:28;20.30;53.90
81951;DHT22;71452;52.562;5.642;2023-08-07T11:14:57;20.20;54.10
81951;DHT22;71452;52.562;5.642;2023-08-07T11:17:27;20.10;53.90
81951;DHT22;71452;52.562;5.642;2023-08-07T11:19:56;20.00;54.50
81951;DHT22;71452;52.562;5.642;2023-08-07T11:22:25;20.00;54.60
81951;DHT22;71452;52.562;5.642;2023-08-07T11:24:54;20.20;54.00
81951;DHT22;71452;52.562;5.642;2023-08-07T11:27:23;20.50;53.60
81951;DHT22;71452;52.562;5.642;2023-08-07T11:29:55;20.50;53.20
81951;DHT22;71452;52.562;5.642;2023-08-07T11:32:27;20.60;52.30
81951;DHT22;71452;52.562;5.642;2023-08-07T11:34:57;20.40;53.20
81951;DHT22;71452;52.562;5.642;2023-08-07T11:37:26;20.30;53.90
81951;DHT22;71452;52.562;5.642;2023-08-07T11:40:00;20.50;54.30
81951;DHT22;71452;52.562;5.642;2023-08-07T11:42:29;20.60;54.10
81951;DHT22;71452;52.562;5.642;2023-08-07T11:45:01;20.70;53.70
81951;DHT22;71452;52.562;5.642;2023-08-07T11:47:30;20.90;53.00
81951;DHT22;71452;52.562;5.642;2023-08-07T11:50:00;20.80;52.60
81951;DHT22;71452;52.562;5.642;2023-08-07T11:52:30;20.70;52.80
81951;DHT22;71452;52.562;5.642;2023-08-07T11:55:02;20.50;53.40
81951;DHT22;71452;52.562;5.642;2023-08-07T11:57:32;20.50;54.00
81951;DHT22;71452;52.562;5.642;2023-08-07T12:00:06;20.50;54.10
81951;DHT22;71452;52.562;5.642;2023-08-07T12:02:42;20.50;54.00
81951;DHT22;71452;52.562;5.642;2023-08-07T12:05:11;20.60;53.70
81951;DHT22;71452;52.562;5.642;2023-08-07T12:07:40;20.60;53.60
81951;DHT22;71452;52.562;5.642;2023-08-07T12:10:10;20.50;54.30
81951;DHT22;71452;52.562;5.642;2023-08-07T12:12:42;20.50;54.80
81951;DHT22;71452;52.562;5.642;2023-08-07T12:15:16;20.60;54.50
81951;DHT22;71452;52.562;5.642;2023-08-07T12:17:46;20.70;55.20
81951;DHT22;71452;52.562;5.642;2023-08-07T12:20:16;20.80;55.20
81951;DHT22;71452;52.562;5.642;2023-08-07T12:22:46;20.90;55.40
81951;DHT22;71452;52.562;5.642;2023-08-07T12:25:15;20.90;55.10
81951;DHT22;71452;52.562;5.642;2023-08-07T12:27:44;20.80;55.20
81951;DHT22;71452;52.562;5.642;2023-08-07T12:30:17;20.70;55.60
81951;DHT22;71452;52.562;5.642;2023-08-07T12:32:46;20.60;55.80
81951;DHT22;71452;52.562;5.642;2023-08-07T12:35:15;20.50;56.10
81951;DHT22;71452;52.562;5.642;2023-08-07T12:37:44;20.50;56.70
81951;DHT22;71452;52.562;5.642;2023-08-07T12:40:13;20.70;55.90
81951;DHT22;71452;52.562;5.642;2023-08-07T12:42:46;20.70;55.00
81951;DHT22;71452;52.562;5.642;2023-08-07T12:45:18;20.70;55.50
81951;DHT22;71452;52.562;5.642;2023-08-07T12:47:47;20.70;55.30
81951;DHT22;71452;52.562;5.642;2023-08-07T12:50:16;20.80;55.00
81951;DHT22;71452;52.562;5.642;2023-08-07T12:52:46;20.90;54.90
81951;DHT22;71452;52.562;5.642;2023-08-07T12:55:15;21.00;54.90
81951;DHT22;71452;52.562;5.642;2023-08-07T12:57:44;21.10;54.80
81951;DHT22;71452;52.562;5.642;2023-08-07T13:00:18;21.10;55.10
81951;DHT22;71452;52.562;5.642;2023-08-07T13:02:48;21.10;54.60
81951;DHT22;71452;52.562;5.642;2023-08-07T13:05:21;21.10;53.90
81951;DHT22;71452;52.562;5.642;2023-08-07T13:07:51;21.10;53.90
81951;DHT22;71452;52.562;5.642;2023-08-07T13:10:25;21.10;53.80
81951;DHT22;71452;52.562;5.642;2023-08-07T13:12:54;21.20;53.50
81951;DHT22;71452;52.562;5.642;2023-08-07T13:15:27;21.20;53.40
81951;DHT22;71452;52.562;5.642;2023-08-07T13:17:56;21.10;53.50
81951;DHT22;71452;52.562;5.642;2023-08-07T13:20:26;21.10;53.00
81951;DHT22;71452;52.562;5.642;2023-08-07T13:22:59;21.10;53.00
81951;DHT22;71452;52.562;5.642;2023-08-07T13:25:30;21.10;54.00
81951;DHT22;71452;52.562;5.642;2023-08-07T13:27:59;21.10;53.60
81951;DHT22;71452;52.562;5.642;2023-08-07T13:30:35;21.10;53.70
81951;DHT22;71452;52.562;5.642;2023-08-07T13:33:04;21.10;53.50
81951;DHT22;71452;52.562;5.642;2023-08-07T13:35:33;21.10;53.90
81951;DHT22;71452;52.562;5.642;2023-08-07T13:38:02;21.10;53.10
81951;DHT22;71452;52.562;5.642;2023-08-07T13:40:35;21.10;52.80
81951;DHT22;71452;52.562;5.642;2023-08-07T13:43:04;20.90;53.50
81951;DHT22;71452;52.562;5.642;2023-08-07T13:45:38;20.90;53.70
81951;DHT22;71452;52.562;5.642;2023-08-07T13:48:07;20.90;54.00
81951;DHT22;71452;52.562;5.642;2023-08-07T13:50:35;20.90;53.10
81951;DHT22;71452;52.562;5.642;2023-08-07T13:53:07;21.00;52.70
81951;DHT22;71452;52.562;5.642;2023-08-07T13:55:36;21.10;53.30
81951;DHT22;71452;52.562;5.642;2023-08-07T13:58:05;21.10;52.30
81951;DHT22;71452;52.562;5.642;2023-08-07T14:00:38;21.30;52.60
81951;DHT22;71452;52.562;5.642;2023-08-07T14:03:07;21.40;52.10
81951;DHT22;71452;52.562;5.642;2023-08-07T14:05:38;21.30;51.90
81951;DHT22;71452;52.562;5.642;2023-08-07T14:08:07;21.10;52.20
81951;DHT22;71452;52.562;5.642;2023-08-07T14:10:36;21.00;52.20
81951;DHT22;71452;52.562;5.642;2023-08-07T14:13:07;21.00;53.20
81951;DHT22;71452;52.562;5.642;2023-08-07T14:15:38;20.90;52.80
81951;DHT22;71452;52.562;5.642;2023-08-07T14:18:08;20.90;52.20
81951;DHT22;71452;52.562;5.642;2023-08-07T14:20:37;20.90;52.70
81951;DHT22;71452;52.562;5.642;2023-08-07T14:23:07;21.00;53.10
81951;DHT22;71452;52.562;5.642;2023-08-07T14:25:36;21.10;53.00
81951;DHT22;71452;52.562;5.642;2023-08-07T14:28:05;21.30;51.50
81951;DHT22;71452;52.562;5.642;2023-08-07T14:30:34;21.40;51.50
81951;DHT22;71452;52.562;5.642;2023-08-07T14:33:06;21.50;52.00
81951;DHT22;71452;52.562;5.642;2023-08-07T14:35:35;21.40;51.20
81951;DHT22;71452;52.562;5.642;2023-08-07T14:38:04;21.30;51.40
81951;DHT22;71452;52.562;5.642;2023-08-07T14:40:33;21.20;51.50
81951;DHT22;71452;52.562;5.642;2023-08-07T14:43:04;21.10;52.00
81951;DHT22;71452;52.562;5.642;2023-08-07T14:45:33;20.90;52.40
81951;DHT22;71452;52.562;5.642;2023-08-07T14:48:06;20.80;52.70
81951;DHT22;71452;52.562;5.642;2023-08-07T14:50:35;20.80;52.70
81951;DHT22;71452;52.562;5.642;2023-08-07T14:53:04;20.80;52.80
81951;DHT22;71452;52.562;5.642;2023-08-07T14:55:33;20.80;53.10
81951;DHT22;71452;52.562;5.642;2023-08-07T14:58:02;20.70;52.90
81951;DHT22;71452;52.562;5.642;2023-08-07T15:00:31;20.70;52.80
81951;DHT22;71452;52.562;5.642;2023-08-07T15:03:00;20.70;52.80
81951;DHT22;71452;52.562;5.642;2023-08-07T15:05:32;20.60;52.90
81951;DHT22;71452;52.562;5.642;2023-08-07T15:08:01;20.60;52.80
81951;DHT22;71452;52.562;5.642;2023-08-07T15:10:30;20.60;52.90
81951;DHT22;71452;52.562;5.642;2023-08-07T15:13:01;20.60;51.60
81951;DHT22;71452;52.562;5.642;2023-08-07T15:15:30;20.50;51.90
81951;DHT22;71452;52.562;5.642;2023-08-07T15:17:59;20.50;52.00
81951;DHT22;71452;52.562;5.642;2023-08-07T15:20:33;20.50;52.20
81951;DHT22;71452;52.562;5.642;2023-08-07T15:23:02;20.50;52.40
81951;DHT22;71452;52.562;5.642;2023-08-07T15:25:31;20.50;52.30
81951;DHT22;71452;52.562;5.642;2023-08-07T15:28:00;20.50;51.70
81951;DHT22;71452;52.562;5.642;2023-08-07T15:30:30;20.50;51.90
81951;DHT22;71452;52.562;5.642;2023-08-07T15:32:59;20.50;51.60
81951;DHT22;71452;52.562;5.642;2023-08-07T15:35:32;20.50;51.60
81951;DHT22;71452;52.562;5.642;2023-08-07T15:38:01;20.30;52.00
81951;DHT22;71452;52.562;5.642;2023-08-07T15:40:30;20.20;52.10
81951;DHT22;71452;52.562;5.642;2023-08-07T15:42:59;20.10;52.40
81951;DHT22;71452;52.562;5.642;2023-08-07T15:45:28;20.00;52.60
81951;DHT22;71452;52.562;5.642;2023-08-07T15:47:57;20.00;53.30